createdAt,value
2023-03-19T00:00:09.655Z,12.20
2023-03-19T00:01:09.602Z,12.30
2023-03-19T00:02:17.682Z,11.80
2023-03-19T00:03:09.464Z,12.80
2023-03-19T00:04:09.406Z,13.60
2023-03-19T00:05:09.364Z,13.90
2023-03-19T00:06:09.274Z,13.50
2023-03-19T00:07:09.225Z,14.60
2023-03-19T00:09:18.399Z,14.10
2023-03-19T00:10:19.339Z,13.10
2023-03-19T00:11:19.249Z,12.60
2023-03-19T00:12:19.189Z,12.50
2023-03-19T00:13:19.130Z,12.30
2023-03-19T00:14:19.108Z,12.10
2023-03-19T00:15:19.026Z,13.20
2023-03-19T00:16:18.994Z,13.10
2023-03-19T00:17:18.908Z,13.30
2023-03-19T00:18:18.794Z,13.90
2023-03-19T00:19:18.779Z,13.70
2023-03-19T00:20:18.695Z,13.70
2023-03-19T00:21:18.629Z,13.20
2023-03-19T00:22:18.572Z,12.60
2023-03-19T00:23:18.545Z,13.20
2023-03-19T00:24:18.471Z,12.30
2023-03-19T00:25:18.381Z,13.10
2023-03-19T00:26:18.337Z,12.60
2023-03-19T00:27:18.258Z,11.80
2023-03-19T00:28:18.237Z,13.20
2023-03-19T00:29:18.193Z,13.00
2023-03-19T00:30:18.129Z,11.60
2023-03-19T00:31:17.989Z,13.20
2023-03-19T00:32:17.940Z,12.70
2023-03-19T00:33:17.863Z,12.60
2023-03-19T00:34:17.798Z,12.30
2023-03-19T00:35:17.776Z,12.30
2023-03-19T00:36:17.697Z,13.70
2023-03-19T00:37:17.615Z,11.70
2023-03-19T00:38:17.592Z,12.20
2023-03-19T00:39:17.518Z,13.10
2023-03-19T00:40:17.446Z,12.70
2023-03-19T00:41:17.418Z,13.10
2023-03-19T00:42:17.310Z,12.70
2023-03-19T00:43:17.270Z,13.50
2023-03-19T00:44:17.238Z,13.90
2023-03-19T00:45:17.136Z,13.10
2023-03-19T00:46:17.100Z,13.10
2023-03-19T00:47:17.004Z,13.90
2023-03-19T00:48:16.934Z,13.70
2023-03-19T00:49:16.881Z,13.50
2023-03-19T00:50:17.158Z,13.30
2023-03-19T00:51:16.764Z,14.50
2023-03-19T00:52:16.711Z,14.40
2023-03-19T00:53:16.696Z,13.50
2023-03-19T00:54:16.571Z,13.90
2023-03-19T00:55:16.546Z,14.30
2023-03-19T00:56:16.440Z,13.90
2023-03-19T00:57:16.427Z,12.70
2023-03-19T00:58:16.356Z,12.30
2023-03-19T00:59:16.246Z,11.90
2023-03-19T01:00:20.602Z,13.70
2023-03-19T01:01:16.238Z,13.70
2023-03-19T01:02:37.073Z,15.90
2023-03-19T01:03:16.037Z,15.20
2023-03-19T01:04:15.997Z,15.30
2023-03-19T01:05:15.926Z,15.10
2023-03-19T01:06:15.846Z,16.20
2023-03-19T01:07:15.769Z,14.70
2023-03-19T01:08:15.885Z,14.10
2023-03-19T01:09:15.650Z,13.60
2023-03-19T01:10:15.596Z,13.30
2023-03-19T01:11:15.515Z,14.30
2023-03-19T01:12:15.425Z,13.10
2023-03-19T01:13:15.417Z,14.20
2023-03-19T01:14:15.341Z,15.10
2023-03-19T01:15:15.308Z,14.10
2023-03-19T01:16:15.204Z,14.60
2023-03-19T01:17:15.149Z,13.60
2023-03-19T01:18:15.111Z,14.20
2023-03-19T01:19:15.046Z,13.50
2023-03-19T01:21:25.213Z,14.30
2023-03-19T01:22:26.132Z,14.20
2023-03-19T01:23:26.113Z,13.80
2023-03-19T01:24:26.013Z,12.90
2023-03-19T01:25:25.986Z,13.90
2023-03-19T01:26:25.923Z,13.50
2023-03-19T01:27:25.813Z,14.40
2023-03-19T01:28:25.754Z,13.80
2023-03-19T01:29:25.712Z,14.30
2023-03-19T01:30:25.688Z,13.30
2023-03-19T01:31:25.609Z,13.60
2023-03-19T01:32:25.537Z,13.20
2023-03-19T01:33:25.778Z,13.70
2023-03-19T01:34:25.402Z,14.30
2023-03-19T01:35:25.365Z,14.20
2023-03-19T01:36:25.291Z,15.00
2023-03-19T01:37:25.251Z,12.60
2023-03-19T01:38:25.148Z,12.70
2023-03-19T01:39:25.103Z,14.20
2023-03-19T01:40:25.011Z,15.00
2023-03-19T01:41:25.022Z,15.00
2023-03-19T01:42:24.862Z,15.60
2023-03-19T01:43:24.840Z,14.30
2023-03-19T01:44:24.768Z,13.20
2023-03-19T01:45:24.742Z,13.60
2023-03-19T01:46:24.716Z,14.00
2023-03-19T01:47:24.584Z,13.50
2023-03-19T01:48:24.521Z,13.40
2023-03-19T01:49:24.502Z,13.10
2023-03-19T01:50:24.452Z,13.20
2023-03-19T01:51:24.316Z,12.70
2023-03-19T01:52:24.212Z,16.30
2023-03-19T01:53:24.216Z,15.10
2023-03-19T01:54:24.189Z,14.60
2023-03-19T01:55:24.101Z,14.90
2023-03-19T01:56:24.090Z,14.00
2023-03-19T01:57:23.978Z,14.80
2023-03-19T01:58:25.894Z,13.50
2023-03-19T01:59:23.820Z,15.10
2023-03-19T02:00:23.730Z,13.00
2023-03-19T02:01:23.820Z,12.90
2023-03-19T02:02:23.656Z,13.10
2023-03-19T02:03:23.596Z,13.80
2023-03-19T02:04:23.616Z,12.80
2023-03-19T02:05:23.471Z,12.80
2023-03-19T02:06:23.449Z,13.20
2023-03-19T02:07:23.348Z,13.60
2023-03-19T02:08:23.324Z,12.90
2023-03-19T02:09:23.248Z,13.40
2023-03-19T02:10:23.188Z,12.50
2023-03-19T02:11:23.132Z,12.80
2023-03-19T02:12:23.012Z,12.40
2023-03-19T02:13:23.084Z,13.30
2023-03-19T02:14:22.924Z,12.40
2023-03-19T02:15:22.829Z,12.50
2023-03-19T02:16:22.862Z,12.50
2023-03-19T02:17:22.755Z,12.50
2023-03-19T02:18:22.639Z,12.60
2023-03-19T02:19:22.608Z,12.80
2023-03-19T02:20:22.542Z,12.70
2023-03-19T02:21:22.543Z,12.60
2023-03-19T02:22:22.393Z,12.80
2023-03-19T02:23:22.346Z,13.00
2023-03-19T02:24:22.323Z,12.20
2023-03-19T02:25:22.206Z,12.70
2023-03-19T02:26:22.164Z,12.90
2023-03-19T02:27:22.131Z,13.20
2023-03-19T02:28:22.019Z,13.30
2023-03-19T02:29:21.996Z,12.90
2023-03-19T02:30:21.942Z,12.90
2023-03-19T02:31:21.936Z,13.10
2023-03-19T02:32:21.775Z,13.10
2023-03-19T02:33:21.729Z,13.30
2023-03-19T02:34:21.692Z,14.20
2023-03-19T02:35:21.616Z,15.50
2023-03-19T02:36:21.547Z,13.20
2023-03-19T02:37:21.484Z,13.80
2023-03-19T02:38:21.438Z,14.10
2023-03-19T02:39:21.332Z,13.70
2023-03-19T02:40:21.292Z,15.40
2023-03-19T02:41:21.235Z,15.30
2023-03-19T02:42:21.143Z,14.70
2023-03-19T02:43:21.112Z,13.60
2023-03-19T02:44:21.040Z,13.70
2023-03-19T02:45:20.981Z,14.40
2023-03-19T02:46:20.974Z,14.00
2023-03-19T02:47:20.866Z,11.80
2023-03-19T02:48:20.802Z,12.50
2023-03-19T02:49:20.708Z,13.30
2023-03-19T02:51:30.924Z,11.40
2023-03-19T02:52:31.832Z,12.60
2023-03-19T02:53:31.750Z,12.40
2023-03-19T02:54:31.738Z,12.40
2023-03-19T02:55:31.649Z,12.40
2023-03-19T02:56:31.604Z,12.80
2023-03-19T02:57:31.535Z,12.80
2023-03-19T02:58:31.473Z,12.20
2023-03-19T02:59:31.430Z,12.60
2023-03-19T03:00:31.538Z,12.70
2023-03-19T03:01:31.305Z,11.50
2023-03-19T03:02:31.297Z,10.60
2023-03-19T03:03:31.155Z,11.40
2023-03-19T03:04:31.067Z,10.80
2023-03-19T03:05:31.032Z,11.60
2023-03-19T03:06:31.000Z,10.80
2023-03-19T03:07:30.930Z,11.40
2023-03-19T03:08:30.888Z,10.80
2023-03-19T03:09:30.759Z,10.60
2023-03-19T03:10:30.843Z,10.90
2023-03-19T03:11:30.666Z,12.10
2023-03-19T03:12:30.571Z,11.40
2023-03-19T03:13:30.513Z,10.60
2023-03-19T03:14:30.523Z,10.60
2023-03-19T03:15:30.383Z,11.10
2023-03-19T03:16:30.397Z,11.20
2023-03-19T03:17:30.289Z,12.10
2023-03-19T03:18:30.233Z,11.50
2023-03-19T03:19:30.170Z,11.70
2023-03-19T03:20:30.099Z,12.30
2023-03-19T03:21:30.091Z,12.10
2023-03-19T03:22:29.951Z,12.00
2023-03-19T03:23:29.920Z,12.00
2023-03-19T03:24:29.855Z,14.50
2023-03-19T03:25:29.796Z,14.60
2023-03-19T03:26:50.717Z,14.40
2023-03-19T03:27:29.642Z,14.30
2023-03-19T03:28:29.576Z,14.10
2023-03-19T03:29:29.537Z,13.50
2023-03-19T03:30:29.511Z,13.20
2023-03-19T03:31:29.447Z,12.10
2023-03-19T03:32:29.345Z,12.00
2023-03-19T03:33:29.302Z,11.90
2023-03-19T03:34:29.210Z,11.80
2023-03-19T03:35:29.196Z,12.70
2023-03-19T03:36:29.146Z,12.50
2023-03-19T03:37:29.019Z,11.40
2023-03-19T03:38:29.026Z,11.30
2023-03-19T03:39:28.899Z,12.00
2023-03-19T03:40:28.884Z,10.50
2023-03-19T03:41:28.828Z,10.10
2023-03-19T03:42:28.716Z,10.10
2023-03-19T03:43:28.661Z,9.80
2023-03-19T03:44:49.571Z,10.40
2023-03-19T03:45:28.585Z,11.20
2023-03-19T03:46:28.493Z,10.90
2023-03-19T03:47:28.438Z,11.20
2023-03-19T03:48:28.373Z,10.90
2023-03-19T03:49:28.298Z,10.90
2023-03-19T03:50:28.285Z,9.70
2023-03-19T03:51:28.169Z,11.10
2023-03-19T03:52:28.122Z,10.80
2023-03-19T03:53:28.055Z,10.50
2023-03-19T03:54:27.997Z,10.50
2023-03-19T03:55:27.903Z,10.00
2023-03-19T03:56:27.927Z,11.30
2023-03-19T03:57:27.807Z,10.90
2023-03-19T03:58:27.739Z,10.40
2023-03-19T03:59:27.683Z,11.30
2023-03-19T04:00:27.600Z,12.80
2023-03-19T04:01:27.584Z,12.00
2023-03-19T04:02:48.568Z,12.20
2023-03-19T04:03:27.482Z,10.60
2023-03-19T04:04:27.393Z,11.60
2023-03-19T04:05:27.280Z,11.10
2023-03-19T04:06:27.222Z,12.00
2023-03-19T04:07:27.193Z,11.70
2023-03-19T04:08:27.131Z,11.90
2023-03-19T04:09:27.034Z,11.90
2023-03-19T04:10:27.000Z,12.60
2023-03-19T04:11:26.918Z,11.60
2023-03-19T04:12:26.877Z,11.50
2023-03-19T04:13:26.810Z,11.80
2023-03-19T04:14:26.744Z,11.00
2023-03-19T04:15:26.689Z,11.30
2023-03-19T04:16:26.605Z,11.00
2023-03-19T04:17:26.545Z,11.80
2023-03-19T04:18:26.475Z,13.00
2023-03-19T04:19:26.421Z,13.90
2023-03-19T04:20:26.342Z,12.60
2023-03-19T04:21:26.285Z,13.00
2023-03-19T04:22:26.233Z,14.30
2023-03-19T04:23:26.193Z,15.10
2023-03-19T04:24:26.156Z,16.20
2023-03-19T04:25:26.062Z,15.50
2023-03-19T04:26:26.015Z,16.50
2023-03-19T04:27:25.940Z,17.50
2023-03-19T04:28:25.906Z,17.70
2023-03-19T04:29:25.825Z,17.80
2023-03-19T04:30:25.786Z,17.30
2023-03-19T04:31:25.736Z,19.60
2023-03-19T04:32:25.618Z,18.90
2023-03-19T04:33:25.579Z,18.80
2023-03-19T04:34:25.492Z,19.10
2023-03-19T04:35:25.553Z,17.70
2023-03-19T04:36:25.400Z,16.00
2023-03-19T04:37:25.354Z,15.70
2023-03-19T04:38:46.254Z,16.20
2023-03-19T04:39:25.203Z,16.10
2023-03-19T04:40:25.151Z,15.70
2023-03-19T04:41:25.075Z,14.90
2023-03-19T04:42:25.017Z,15.00
2023-03-19T04:43:24.990Z,15.50
2023-03-19T04:44:24.888Z,16.30
2023-03-19T04:45:24.825Z,14.80
2023-03-19T04:46:24.812Z,15.20
2023-03-19T04:47:24.700Z,15.20
2023-03-19T04:48:24.640Z,15.50
2023-03-19T04:49:24.592Z,15.00
2023-03-19T04:50:24.532Z,14.80
2023-03-19T04:51:24.456Z,14.90
2023-03-19T04:52:24.415Z,15.90
2023-03-19T04:53:24.328Z,15.30
2023-03-19T04:54:24.296Z,14.70
2023-03-19T04:55:24.202Z,14.50
2023-03-19T04:56:24.150Z,15.10
2023-03-19T04:57:24.101Z,14.70
2023-03-19T04:58:24.041Z,14.30
2023-03-19T04:59:23.929Z,14.60
2023-03-19T05:00:23.891Z,14.90
2023-03-19T05:01:23.813Z,14.70
2023-03-19T05:02:23.811Z,15.00
2023-03-19T05:03:23.711Z,15.50
2023-03-19T05:04:23.644Z,15.20
2023-03-19T05:05:23.580Z,15.00
2023-03-19T05:06:23.544Z,14.40
2023-03-19T05:07:23.401Z,14.60
2023-03-19T05:08:23.355Z,16.40
2023-03-19T05:09:23.274Z,15.90
2023-03-19T05:10:23.244Z,14.90
2023-03-19T05:11:23.158Z,16.40
2023-03-19T05:12:23.091Z,15.00
2023-03-19T05:13:23.024Z,14.80
2023-03-19T05:14:43.939Z,14.60
2023-03-19T05:15:22.942Z,14.50
2023-03-19T05:16:22.926Z,15.10
2023-03-19T05:17:22.748Z,14.50
2023-03-19T05:18:22.742Z,16.10
2023-03-19T05:19:22.628Z,15.70
2023-03-19T05:20:22.612Z,15.30
2023-03-19T05:21:22.553Z,15.60
2023-03-19T05:22:22.446Z,15.20
2023-03-19T05:23:22.405Z,15.00
2023-03-19T05:24:22.365Z,15.20
2023-03-19T05:25:22.310Z,16.20
2023-03-19T05:26:22.255Z,15.60
2023-03-19T05:27:22.181Z,14.60
2023-03-19T05:28:22.085Z,15.60
2023-03-19T05:29:22.005Z,15.70
2023-03-19T05:30:21.968Z,14.30
2023-03-19T05:31:21.970Z,14.60
2023-03-19T05:33:31.054Z,15.70
2023-03-19T05:34:32.014Z,16.00
2023-03-19T05:35:32.001Z,16.90
2023-03-19T05:36:31.871Z,16.70
2023-03-19T05:37:31.792Z,15.40
2023-03-19T05:38:31.745Z,14.50
2023-03-19T05:39:31.668Z,15.10
2023-03-19T05:40:31.886Z,15.40
2023-03-19T05:41:31.553Z,16.30
2023-03-19T05:42:31.508Z,16.50
2023-03-19T05:43:31.449Z,15.90
2023-03-19T05:44:31.372Z,16.10
2023-03-19T05:45:31.284Z,17.30
2023-03-19T05:46:31.360Z,17.50
2023-03-19T05:47:31.170Z,17.30
2023-03-19T05:48:31.109Z,17.10
2023-03-19T05:49:31.052Z,16.50
2023-03-19T05:50:31.015Z,14.10
2023-03-19T05:51:30.951Z,16.10
2023-03-19T05:52:30.863Z,15.50
2023-03-19T05:53:30.775Z,15.20
2023-03-19T05:54:30.771Z,16.30
2023-03-19T05:55:30.674Z,16.90
2023-03-19T05:56:30.589Z,16.90
2023-03-19T05:57:30.545Z,15.80
2023-03-19T05:58:30.493Z,15.10
2023-03-19T05:59:30.416Z,15.90
2023-03-19T06:00:30.357Z,16.20
2023-03-19T06:01:30.348Z,16.10
2023-03-19T06:02:30.301Z,16.20
2023-03-19T06:03:30.181Z,18.60
2023-03-19T06:04:30.110Z,20.20
2023-03-19T06:05:30.056Z,21.90
2023-03-19T06:06:29.981Z,23.10
2023-03-19T06:07:29.924Z,27.10
2023-03-19T06:08:29.917Z,35.70
2023-03-19T06:09:29.799Z,37.00
2023-03-19T06:10:29.733Z,44.00
2023-03-19T06:11:29.674Z,44.50
2023-03-19T06:12:29.624Z,45.50
2023-03-19T06:13:29.555Z,49.00
2023-03-19T06:14:29.513Z,51.30
2023-03-19T06:15:29.423Z,52.10
2023-03-19T06:16:29.467Z,52.50
2023-03-19T06:17:29.277Z,53.70
2023-03-19T06:18:29.241Z,56.30
2023-03-19T06:19:29.198Z,53.30
2023-03-19T06:20:29.137Z,51.70
2023-03-19T06:21:29.082Z,55.90
2023-03-19T06:22:29.019Z,55.90
2023-03-19T06:23:28.905Z,55.20
2023-03-19T06:24:28.861Z,51.60
2023-03-19T06:25:28.804Z,46.50
2023-03-19T06:26:49.729Z,50.10
2023-03-19T06:27:28.703Z,49.40
2023-03-19T06:28:28.650Z,51.50
2023-03-19T06:29:28.579Z,44.90
2023-03-19T06:30:28.522Z,43.30
2023-03-19T06:31:28.519Z,46.40
2023-03-19T06:32:28.413Z,33.90
2023-03-19T06:33:28.304Z,36.80
2023-03-19T06:34:28.250Z,36.60
2023-03-19T06:35:28.211Z,37.50
2023-03-19T06:36:28.111Z,40.10
2023-03-19T06:37:28.093Z,39.20
2023-03-19T06:38:28.032Z,36.50
2023-03-19T06:39:27.913Z,34.70
2023-03-19T06:40:27.867Z,34.90
2023-03-19T06:41:27.809Z,35.30
2023-03-19T06:42:27.828Z,32.20
2023-03-19T06:43:27.659Z,36.00
2023-03-19T06:44:27.656Z,35.40
2023-03-19T06:45:27.606Z,37.20
2023-03-19T06:46:27.475Z,37.40
2023-03-19T06:47:27.421Z,38.70
2023-03-19T06:48:27.400Z,38.70
2023-03-19T06:49:27.315Z,36.40
2023-03-19T06:50:27.246Z,37.70
2023-03-19T06:51:27.215Z,34.70
2023-03-19T06:52:27.124Z,30.50
2023-03-19T06:53:27.067Z,30.80
2023-03-19T06:54:26.987Z,33.00
2023-03-19T06:55:26.983Z,28.60
2023-03-19T06:56:26.969Z,28.70
2023-03-19T06:57:26.806Z,27.70
2023-03-19T06:58:26.786Z,28.80
2023-03-19T06:59:26.669Z,28.30
2023-03-19T07:00:26.597Z,26.80
2023-03-19T07:01:26.598Z,22.80
2023-03-19T07:02:26.493Z,23.00
2023-03-19T07:03:26.448Z,20.30
2023-03-19T07:04:26.400Z,18.70
2023-03-19T07:05:26.318Z,18.20
2023-03-19T07:06:26.280Z,17.10
2023-03-19T07:07:26.179Z,15.90
2023-03-19T07:08:26.430Z,15.80
2023-03-19T07:09:26.068Z,14.30
2023-03-19T07:10:26.022Z,16.20
2023-03-19T07:11:25.969Z,15.00
2023-03-19T07:12:25.856Z,14.70
2023-03-19T07:13:25.818Z,13.80
2023-03-19T07:14:25.744Z,13.60
2023-03-19T07:15:25.698Z,13.20
2023-03-19T07:16:25.666Z,13.90
2023-03-19T07:17:25.575Z,13.40
2023-03-19T07:18:25.480Z,13.40
2023-03-19T07:19:25.417Z,13.70
2023-03-19T07:20:46.370Z,13.60
2023-03-19T07:21:25.326Z,12.00
2023-03-19T07:22:25.258Z,12.00
2023-03-19T07:23:25.222Z,11.40
2023-03-19T07:24:25.110Z,11.90
2023-03-19T07:25:25.071Z,11.60
2023-03-19T07:26:25.062Z,11.30
2023-03-19T07:27:24.933Z,10.50
2023-03-19T07:28:24.878Z,10.40
2023-03-19T07:29:24.822Z,10.80
2023-03-19T07:30:24.764Z,10.00
2023-03-19T07:31:24.719Z,10.30
2023-03-19T07:32:24.631Z,10.40
2023-03-19T07:33:24.553Z,10.70
2023-03-19T07:34:24.518Z,10.10
2023-03-19T07:35:24.507Z,9.70
2023-03-19T07:36:24.376Z,9.80
2023-03-19T07:37:24.336Z,9.50
2023-03-19T07:38:45.283Z,9.30
2023-03-19T07:39:24.246Z,9.10
2023-03-19T07:40:24.169Z,8.30
2023-03-19T07:41:24.086Z,8.80
2023-03-19T07:42:24.024Z,8.70
2023-03-19T07:43:23.972Z,9.20
2023-03-19T07:44:23.914Z,9.20
2023-03-19T07:45:23.812Z,9.00
2023-03-19T07:46:23.771Z,9.40
2023-03-19T07:47:28.863Z,9.70
2023-03-19T07:48:23.644Z,8.70
2023-03-19T07:49:23.594Z,9.80
2023-03-19T07:50:23.547Z,8.70
2023-03-19T07:51:23.504Z,9.50
2023-03-19T07:52:23.388Z,10.10
2023-03-19T07:53:23.330Z,9.70
2023-03-19T07:54:23.264Z,9.10
2023-03-19T07:55:23.226Z,10.60
2023-03-19T07:58:02.093Z,8.90
2023-03-19T07:59:03.088Z,9.40
2023-03-19T08:00:02.994Z,9.10
2023-03-19T08:01:03.005Z,9.00
2023-03-19T08:02:02.922Z,9.70
2023-03-19T08:03:02.803Z,8.60
2023-03-19T08:04:02.943Z,9.80
2023-03-19T08:05:02.934Z,9.10
2023-03-19T08:06:02.641Z,10.10
2023-03-19T08:07:02.590Z,9.40
2023-03-19T08:08:02.488Z,9.60
2023-03-19T08:09:02.465Z,9.90
2023-03-19T08:10:02.349Z,9.50
2023-03-19T08:11:02.312Z,10.00
2023-03-19T08:12:02.251Z,9.20
2023-03-19T08:13:02.175Z,9.70
2023-03-19T08:14:23.130Z,9.20
2023-03-19T08:15:02.101Z,9.80
2023-03-19T08:16:02.020Z,9.80
2023-03-19T08:17:02.156Z,9.60
2023-03-19T08:18:01.886Z,9.40
2023-03-19T08:19:01.818Z,9.60
2023-03-19T08:20:01.743Z,10.70
2023-03-19T08:21:01.695Z,9.20
2023-03-19T08:22:01.653Z,9.50
2023-03-19T08:23:01.575Z,9.30
2023-03-19T08:24:04.476Z,8.50
2023-03-19T08:25:01.448Z,10.30
2023-03-19T08:26:01.427Z,9.90
2023-03-19T08:27:01.342Z,9.80
2023-03-19T08:28:01.418Z,10.50
2023-03-19T08:29:01.555Z,9.80
2023-03-19T08:30:01.118Z,9.50
2023-03-19T08:31:01.083Z,9.50
2023-03-19T08:32:01.013Z,9.60
2023-03-19T08:33:01.020Z,9.80
2023-03-19T08:34:00.877Z,10.10
2023-03-19T08:35:00.833Z,9.80
2023-03-19T08:36:00.836Z,9.90
2023-03-19T08:37:00.708Z,10.00
2023-03-19T08:38:00.677Z,9.60
2023-03-19T08:39:00.596Z,10.10
2023-03-19T08:40:00.529Z,9.20
2023-03-19T08:41:00.465Z,9.80
2023-03-19T08:42:00.412Z,9.50
2023-03-19T08:43:00.348Z,9.80
2023-03-19T08:44:00.308Z,9.40
2023-03-19T08:45:00.254Z,9.90
2023-03-19T08:46:00.211Z,9.90
2023-03-19T08:47:00.111Z,10.00
2023-03-19T08:48:00.067Z,9.80
2023-03-19T08:48:59.958Z,9.90
2023-03-19T08:49:59.915Z,10.40
2023-03-19T08:50:59.828Z,10.00
2023-03-19T08:51:59.801Z,9.80
2023-03-19T08:52:59.736Z,10.20
2023-03-19T08:53:59.679Z,10.10
2023-03-19T08:54:59.622Z,8.70
2023-03-19T08:55:59.593Z,9.80
2023-03-19T08:56:59.492Z,10.30
2023-03-19T08:57:59.436Z,10.10
2023-03-19T08:58:59.381Z,11.30
2023-03-19T08:59:59.319Z,10.40
2023-03-19T09:00:59.275Z,10.30
2023-03-19T09:01:59.226Z,9.30
2023-03-19T09:02:59.139Z,10.00
2023-03-19T09:03:59.092Z,9.80
2023-03-19T09:04:59.088Z,10.40
2023-03-19T09:05:58.917Z,10.90
2023-03-19T09:06:58.855Z,10.20
2023-03-19T09:07:58.814Z,10.50
2023-03-19T09:08:58.759Z,9.60
2023-03-19T09:09:58.708Z,9.30
2023-03-19T09:10:58.726Z,10.10
2023-03-19T09:11:58.546Z,10.10
2023-03-19T09:12:58.511Z,10.00
2023-03-19T09:13:58.528Z,10.00
2023-03-19T09:14:58.420Z,9.90
2023-03-19T09:15:58.363Z,9.80
2023-03-19T09:16:58.283Z,10.10
2023-03-19T09:17:58.205Z,9.50
2023-03-19T09:18:59.452Z,9.40
2023-03-19T09:19:58.164Z,9.80
2023-03-19T09:20:58.024Z,10.00
2023-03-19T09:21:57.984Z,8.80
2023-03-19T09:22:57.875Z,9.90
2023-03-19T09:23:57.864Z,9.40
2023-03-19T09:24:57.808Z,9.60
2023-03-19T09:27:06.942Z,9.50
2023-03-19T09:28:07.820Z,9.80
2023-03-19T09:29:07.775Z,8.70
2023-03-19T09:30:07.724Z,9.50
2023-03-19T09:31:07.704Z,9.20
2023-03-19T09:32:07.635Z,8.90
2023-03-19T09:33:07.574Z,9.20
2023-03-19T09:34:07.497Z,9.30
2023-03-19T09:35:07.458Z,9.80
2023-03-19T09:36:07.412Z,9.10
2023-03-19T09:37:07.301Z,9.10
2023-03-19T09:38:07.227Z,9.50
2023-03-19T09:39:07.137Z,8.80
2023-03-19T09:40:07.126Z,9.50
2023-03-19T09:41:07.023Z,9.00
2023-03-19T09:42:06.989Z,9.80
2023-03-19T09:43:06.943Z,9.00
2023-03-19T09:44:27.813Z,9.20
2023-03-19T09:45:06.827Z,9.30
2023-03-19T09:46:06.731Z,9.20
2023-03-19T09:47:06.845Z,9.10
2023-03-19T09:48:06.642Z,9.00
2023-03-19T09:49:06.553Z,9.90
2023-03-19T09:50:06.534Z,9.10
2023-03-19T09:51:06.398Z,9.30
2023-03-19T09:52:09.177Z,8.60
2023-03-19T09:53:06.309Z,8.90
2023-03-19T09:54:06.301Z,9.50
2023-03-19T09:55:06.156Z,9.10
2023-03-19T09:56:06.146Z,8.40
2023-03-19T09:57:06.035Z,8.90
2023-03-19T09:58:06.020Z,9.30
2023-03-19T09:59:05.915Z,9.40
2023-03-19T10:00:05.856Z,8.90
2023-03-19T10:01:05.844Z,8.90
2023-03-19T10:02:26.715Z,8.80
2023-03-19T10:03:05.728Z,8.70
2023-03-19T10:04:05.703Z,8.50
2023-03-19T10:05:05.592Z,9.10
2023-03-19T10:06:05.506Z,8.90
2023-03-19T10:07:05.429Z,8.50
2023-03-19T10:08:05.418Z,8.60
2023-03-19T10:09:05.325Z,8.70
2023-03-19T10:10:05.250Z,8.70
2023-03-19T10:11:05.229Z,8.20
2023-03-19T10:12:05.149Z,8.10
2023-03-19T10:13:05.062Z,8.40
2023-03-19T10:14:05.059Z,9.00
2023-03-19T10:15:04.982Z,8.30
2023-03-19T10:16:04.996Z,8.90
2023-03-19T10:17:04.819Z,8.00
2023-03-19T10:18:04.756Z,7.90
2023-03-19T10:19:04.747Z,8.20
2023-03-19T10:20:04.963Z,8.00
2023-03-19T10:21:04.601Z,7.60
2023-03-19T10:22:04.540Z,7.80
2023-03-19T10:23:04.483Z,8.30
2023-03-19T10:24:04.386Z,7.80
2023-03-19T10:25:04.374Z,7.50
2023-03-19T10:26:04.277Z,7.30
2023-03-19T10:27:04.200Z,7.90
2023-03-19T10:28:04.141Z,7.60
2023-03-19T10:29:04.088Z,7.70
2023-03-19T10:30:04.076Z,7.40
2023-03-19T10:31:04.015Z,7.80
2023-03-19T10:32:03.971Z,8.50
2023-03-19T10:33:03.926Z,8.20
2023-03-19T10:34:03.838Z,7.20
2023-03-19T10:35:03.749Z,8.00
2023-03-19T10:36:03.704Z,7.40
2023-03-19T10:37:03.658Z,7.00
2023-03-19T10:38:03.583Z,7.30
2023-03-19T10:39:03.502Z,7.60
2023-03-19T10:40:03.442Z,7.10
2023-03-19T10:41:03.399Z,7.70
2023-03-19T10:42:03.315Z,7.20
2023-03-19T10:43:03.265Z,7.20
2023-03-19T10:44:03.249Z,7.60
2023-03-19T10:45:03.143Z,7.40
2023-03-19T10:46:03.110Z,7.30
2023-03-19T10:47:02.993Z,7.20
2023-03-19T10:48:02.979Z,7.30
2023-03-19T10:49:02.939Z,7.30
2023-03-19T10:50:02.897Z,7.50
2023-03-19T10:51:02.776Z,6.80
2023-03-19T10:52:02.722Z,7.20
2023-03-19T10:53:02.668Z,7.70
2023-03-19T10:54:02.613Z,7.90
2023-03-19T10:55:02.536Z,7.00
2023-03-19T10:56:02.507Z,7.00
2023-03-19T10:57:02.412Z,7.60
2023-03-19T10:58:02.358Z,7.40
2023-03-19T10:59:02.286Z,6.90
2023-03-19T11:00:02.349Z,6.60
2023-03-19T11:01:02.171Z,8.30
2023-03-19T11:02:02.133Z,6.90
2023-03-19T11:03:02.058Z,7.10
2023-03-19T11:04:02.026Z,7.50
2023-03-19T11:05:01.950Z,7.90
2023-03-19T11:06:01.861Z,7.20
2023-03-19T11:07:01.789Z,7.10
2023-03-19T11:08:01.768Z,7.30
2023-03-19T11:09:01.658Z,7.80
2023-03-19T11:10:01.604Z,7.50
2023-03-19T11:11:01.572Z,7.00
2023-03-19T11:12:01.474Z,7.00
2023-03-19T11:13:01.414Z,6.90
2023-03-19T11:14:01.359Z,7.40
2023-03-19T11:15:01.292Z,8.30
2023-03-19T11:16:01.255Z,7.40
2023-03-19T11:17:03.438Z,7.50
2023-03-19T11:18:01.148Z,8.10
2023-03-19T11:19:01.078Z,7.50
2023-03-19T11:20:01.027Z,6.80
2023-03-19T11:21:00.980Z,6.80
2023-03-19T11:22:00.867Z,7.50
2023-03-19T11:23:00.858Z,7.00
2023-03-19T11:24:00.748Z,7.40
2023-03-19T11:25:00.717Z,7.60
2023-03-19T11:26:00.694Z,7.20
2023-03-19T11:27:00.579Z,7.70
2023-03-19T11:28:00.514Z,7.00
2023-03-19T11:29:00.439Z,7.80
2023-03-19T11:30:00.416Z,7.30
2023-03-19T11:31:00.385Z,7.20
2023-03-19T11:33:09.577Z,7.00
2023-03-19T11:34:10.387Z,7.10
2023-03-19T11:35:10.353Z,7.10
2023-03-19T11:36:10.356Z,7.10
2023-03-19T11:37:10.250Z,6.70
2023-03-19T11:38:10.190Z,6.80
2023-03-19T11:39:10.141Z,6.70
2023-03-19T11:40:10.040Z,6.60
2023-03-19T11:41:09.961Z,6.10
2023-03-19T11:42:09.910Z,6.60
2023-03-19T11:43:09.873Z,6.60
2023-03-19T11:44:09.829Z,6.60
2023-03-19T11:45:09.755Z,6.90
2023-03-19T11:46:09.757Z,6.10
2023-03-19T11:47:24.569Z,6.40
2023-03-19T11:48:09.606Z,6.50
2023-03-19T11:49:09.510Z,6.40
2023-03-19T11:50:09.485Z,6.60
2023-03-19T11:51:09.411Z,6.50
2023-03-19T11:52:09.358Z,6.20
2023-03-19T11:53:09.286Z,5.70
2023-03-19T11:54:09.205Z,6.40
2023-03-19T11:55:09.174Z,6.20
2023-03-19T11:56:09.097Z,6.20
2023-03-19T11:57:09.053Z,5.70
2023-03-19T11:58:08.986Z,6.40
2023-03-19T11:59:08.933Z,6.20
2023-03-19T12:00:08.870Z,6.10
2023-03-19T12:01:08.805Z,6.10
2023-03-19T12:02:08.782Z,5.70
2023-03-19T12:03:08.730Z,5.70
2023-03-19T12:04:08.595Z,5.40
2023-03-19T12:05:08.542Z,5.40
2023-03-19T12:06:08.509Z,5.40
2023-03-19T12:07:08.427Z,5.80
2023-03-19T12:09:17.539Z,5.90
2023-03-19T12:10:18.469Z,5.60
2023-03-19T12:11:18.381Z,5.90
2023-03-19T12:12:18.344Z,5.50
2023-03-19T12:13:18.263Z,5.80
2023-03-19T12:14:18.279Z,5.10
2023-03-19T12:15:18.194Z,5.10
2023-03-19T12:16:18.150Z,5.70
2023-03-19T12:17:18.076Z,5.90
2023-03-19T12:18:18.008Z,4.80
2023-03-19T12:19:17.892Z,4.90
2023-03-19T12:20:17.889Z,4.70
2023-03-19T12:21:17.829Z,5.10
2023-03-19T12:22:17.762Z,4.70
2023-03-19T12:23:17.703Z,4.70
2023-03-19T12:24:17.617Z,4.50
2023-03-19T12:25:17.579Z,4.50
2023-03-19T12:26:17.496Z,4.30
2023-03-19T12:27:17.431Z,5.00
2023-03-19T12:28:17.410Z,4.70
2023-03-19T12:29:17.346Z,4.30
2023-03-19T12:30:17.258Z,4.40
2023-03-19T12:31:17.266Z,3.80
2023-03-19T12:32:17.140Z,4.20
2023-03-19T12:33:17.113Z,4.50
2023-03-19T12:34:17.008Z,4.40
2023-03-19T12:35:16.978Z,4.50
2023-03-19T12:36:16.904Z,3.80
2023-03-19T12:37:16.833Z,4.10
2023-03-19T12:38:16.778Z,3.70
2023-03-19T12:39:16.710Z,4.00
2023-03-19T12:40:16.780Z,3.80
2023-03-19T12:41:16.555Z,4.00
2023-03-19T12:42:16.535Z,4.20
2023-03-19T12:43:16.445Z,4.50
2023-03-19T12:44:16.439Z,3.80
2023-03-19T12:45:16.317Z,4.10
2023-03-19T12:46:16.370Z,4.40
2023-03-19T12:47:16.220Z,3.90
2023-03-19T12:48:16.162Z,4.10
2023-03-19T12:49:16.133Z,3.90
2023-03-19T12:50:16.045Z,4.30
2023-03-19T12:51:15.980Z,4.30
2023-03-19T12:52:15.889Z,4.10
2023-03-19T12:53:15.852Z,4.20
2023-03-19T12:54:15.796Z,4.30
2023-03-19T12:55:15.735Z,4.60
2023-03-19T12:56:15.707Z,4.20
2023-03-19T12:57:15.611Z,4.50
2023-03-19T12:58:15.557Z,4.20
2023-03-19T12:59:15.516Z,4.90
2023-03-19T13:00:15.407Z,4.00
2023-03-19T13:01:15.417Z,4.40
2023-03-19T13:02:36.397Z,4.30
2023-03-19T13:03:15.271Z,3.80
2023-03-19T13:04:15.306Z,4.60
2023-03-19T13:05:15.163Z,4.20
2023-03-19T13:06:15.040Z,4.60
2023-03-19T13:07:14.979Z,4.40
2023-03-19T13:08:14.979Z,4.60
2023-03-19T13:09:14.925Z,4.50
2023-03-19T13:10:14.856Z,4.00
2023-03-19T13:11:14.759Z,4.30